Time;durP1;ratioP1;P1;durP2;ratioP2;P2;SDS_P1;SDS_P2;PMS_P1;PMS_P2;Temp;Humidity;BMP_temperature;BMP_pressure;BME280_temperature;BME280_humidity;BME280_pressure;Samples;Min_cycle;Max_cycle;Signal;HPM_P1;HPM_P2
2023/12/12 06:00:51;;;;;;;14.07;5.17;;;;;;;;;;5938227;22;20571;-77
2023/12/12 06:03:20;;;;;;;13.83;4.83;;;;;;;;;;5012869;28;20510;-76
2023/12/12 06:05:46;;;;;;;16.80;5.03;;;;;;;;;;5013911;28;20401;-76
2023/12/12 06:08:12;;;;;;;21.87;5.47;;;;;;;;;;5013853;28;20493;-76
2023/12/12 06:10:38;;;;;;;17.20;5.80;;;;;;;;;;5013519;28;20438;-76
2023/12/12 06:13:04;;;;;;;17.70;6.20;;;;;;;;;;5014000;28;20413;-77
2023/12/12 06:15:30;;;;;;;16.03;5.17;;;;;;;;;;4995620;28;20418;-77
2023/12/12 06:17:56;;;;;;;14.23;5.43;;;;;;;;;;5014758;28;20414;-76
2023/12/12 06:20:23;;;;;;;20.60;5.83;;;;;;;;;;5014181;28;20414;-77
2023/12/12 06:22:49;;;;;;;13.10;4.83;;;;;;;;;;5013446;28;20450;-78
2023/12/12 06:25:15;;;;;;;15.87;6.43;;;;;;;;;;5013236;28;20441;-77
2023/12/12 06:27:41;;;;;;;16.83;6.10;;;;;;;;;;5013237;28;20923;-78
2023/12/12 06:30:07;;;;;;;21.03;6.33;;;;;;;;;;4995289;28;20462;-78
2023/12/12 06:32:33;;;;;;;11.67;5.87;;;;;;;;;;5013189;28;20441;-78
2023/12/12 06:34:59;;;;;;;16.30;6.80;;;;;;;;;;5012843;28;20434;-79
2023/12/12 06:37:25;;;;;;;20.07;6.37;;;;;;;;;;4995014;28;20418;-78
2023/12/12 06:39:52;;;;;;;16.50;6.37;;;;;;;;;;5013119;28;20417;-78
2023/12/12 06:42:18;;;;;;;23.57;6.17;;;;;;;;;;5013939;28;20441;-79
2023/12/12 06:44:44;;;;;;;17.63;5.97;;;;;;;;;;5017521;28;20422;-80
2023/12/12 06:47:10;;;;;;;19.70;6.33;;;;;;;;;;5017902;28;20424;-82
2023/12/12 06:49:36;;;;;;;17.77;5.27;;;;;;;;;;4999094;28;20450;-78
2023/12/12 06:52:03;;;;;;;12.53;4.97;;;;;;;;;;5017134;28;20785;-80
2023/12/12 06:54:29;;;;;;;14.47;6.00;;;;;;;;;;5024493;28;20429;-79
2023/12/12 06:56:55;;;;;;;17.70;4.70;;;;;;;;;;5014011;28;20427;-75
2023/12/12 06:59:21;;;;;;;19.40;4.83;;;;;;;;;;5019606;28;20406;-84
2023/12/12 07:01:47;;;;;;;16.27;4.40;;;;;;;;;;5013383;28;20508;-80
2023/12/12 07:04:13;;;;;;;10.47;4.90;;;;;;;;;;5006441;28;20418;-83
2023/12/12 07:06:40;;;;;;;18.60;5.60;;;;;;;;;;5028322;28;20425;-81
2023/12/12 07:09:06;;;;;;;12.83;4.23;;;;;;;;;;5021880;28;20457;-79
2023/12/12 07:11:32;;;;;;;11.87;4.27;;;;;;;;;;5012632;28;20536;-73
2023/12/12 07:13:57;;;;;;;15.40;4.90;;;;;;;;;;5012156;28;20414;-74
2023/12/12 07:16:23;;;;;;;24.57;5.93;;;;;;;;;;5012957;28;20777;-78
2023/12/12 07:18:50;;;;;;;11.80;5.60;;;;;;;;;;5012643;28;20802;-80
2023/12/12 07:21:16;;;;;;;12.23;4.87;;;;;;;;;;5012440;28;20461;-79
2023/12/12 07:23:42;;;;;;;15.93;5.40;;;;;;;;;;5012830;28;20793;-79
2023/12/12 07:26:08;;;;;;;17.37;5.90;;;;;;;;;;4995223;28;20884;-79
2023/12/12 07:28:34;;;;;;;13.30;5.83;;;;;;;;;;5012336;28;20421;-79
2023/12/12 07:31:00;;;;;;;11.93;5.90;;;;;;;;;;5012307;28;20430;-81
2023/12/12 07:33:26;;;;;;;15.07;5.97;;;;;;;;;;5012680;28;20409;-78
2023/12/12 07:35:52;;;;;;;13.93;5.57;;;;;;;;;;5013382;28;20410;-77
2023/12/12 07:38:18;;;;;;;9.30;4.63;;;;;;;;;;5012839;28;20548;-78
2023/12/12 07:40:44;;;;;;;15.03;5.43;;;;;;;;;;5012524;28;20441;-77
2023/12/12 07:43:10;;;;;;;13.30;5.10;;;;;;;;;;4995217;28;20426;-78
2023/12/12 07:45:36;;;;;;;20.40;5.30;;;;;;;;;;5012514;28;20509;-75
2023/12/12 07:48:03;;;;;;;10.87;5.30;;;;;;;;;;5012147;28;20484;-74
2023/12/12 07:50:29;;;;;;;14.63;4.93;;;;;;;;;;4993861;28;20473;-74
2023/12/12 07:52:55;;;;;;;13.90;6.30;;;;;;;;;;5012176;28;20414;-71
2023/12/12 07:55:21;;;;;;;13.35;6.32;;;;;;;;;;5011676;28;20778;-71
2023/12/12 07:57:47;;;;;;;17.00;6.20;;;;;;;;;;5012846;28;20661;-78
2023/12/12 08:00:13;;;;;;;11.27;5.23;;;;;;;;;;5014400;28;20469;-79
2023/12/12 08:02:40;;;;;;;15.70;4.80;;;;;;;;;;5011083;28;20468;-78
2023/12/12 08:05:06;;;;;;;11.67;4.77;;;;;;;;;;5019732;28;20437;-80
2023/12/12 08:07:32;;;;;;;20.20;6.60;;;;;;;;;;5006476;28;20438;-80
2023/12/12 08:09:58;;;;;;;18.63;6.23;;;;;;;;;;5022986;28;20453;-80
2023/12/12 08:12:24;;;;;;;19.13;7.00;;;;;;;;;;5004630;28;20462;-79
2023/12/12 08:14:50;;;;;;;18.43;6.10;;;;;;;;;;5024839;28;20413;-80
2023/12/12 08:17:16;;;;;;;22.73;6.90;;;;;;;;;;5024696;28;20414;-79
2023/12/12 08:19:42;;;;;;;17.33;6.43;;;;;;;;;;5025355;28;20866;-79
2023/12/12 08:22:08;;;;;;;19.53;6.70;;;;;;;;;;5006016;28;20454;-79
2023/12/12 08:24:34;;;;;;;14.47;5.80;;;;;;;;;;5008860;28;20414;-79
2023/12/12 08:27:00;;;;;;;17.67;7.40;;;;;;;;;;5005302;28;20422;-78
2023/12/12 08:29:26;;;;;;;22.80;7.83;;;;;;;;;;5004682;28;20466;-80
2023/12/12 08:31:52;;;;;;;17.80;7.10;;;;;;;;;;5020527;28;20426;-80
2023/12/12 08:34:18;;;;;;;16.20;7.43;;;;;;;;;;5029981;28;20506;-79
2023/12/12 08:36:44;;;;;;;16.57;6.40;;;;;;;;;;5013532;28;20469;-80
2023/12/12 08:39:12;;;;;;;15.93;6.53;;;;;;;;;;5001758;28;20414;-80
2023/12/12 08:41:38;;;;;;;21.70;7.00;;;;;;;;;;5022496;28;20491;-79
2023/12/12 08:44:04;;;;;;;15.60;6.57;;;;;;;;;;5019392;28;20979;-80
2023/12/12 08:46:30;;;;;;;14.37;7.20;;;;;;;;;;5018980;28;20460;-80
2023/12/12 08:48:56;;;;;;;17.30;6.50;;;;;;;;;;5000654;28;20807;-80
2023/12/12 08:51:23;;;;;;;19.03;7.10;;;;;;;;;;5024555;28;20426;-79
2023/12/12 08:53:49;;;;;;;22.83;7.90;;;;;;;;;;5022417;28;20433;-82
2023/12/12 08:56:16;;;;;;;19.67;7.50;;;;;;;;;;5034754;28;20508;-80
2023/12/12 08:58:43;;;;;;;15.47;7.17;;;;;;;;;;5002885;28;20426;-79
2023/12/12 09:01:09;;;;;;;19.47;7.60;;;;;;;;;;5018769;28;20465;-78
2023/12/12 09:03:35;;;;;;;16.83;7.37;;;;;;;;;;5001525;28;20429;-80
2023/12/12 09:06:01;;;;;;;18.17;8.07;;;;;;;;;;5018747;28;20410;-80
2023/12/12 09:08:27;;;;;;;18.13;9.33;;;;;;;;;;5001760;28;20433;-80
2023/12/12 09:10:54;;;;;;;22.20;8.87;;;;;;;;;;5008720;28;20913;-81
2023/12/12 09:13:20;;;;;;;11.00;6.50;;;;;;;;;;5025197;28;20475;-81
2023/12/12 09:15:46;;;;;;;21.50;6.83;;;;;;;;;;5029441;28;20479;-79
2023/12/12 09:18:12;;;;;;;15.30;6.47;;;;;;;;;;5019034;28;20445;-81
2023/12/12 09:20:37;;;;;;;15.93;7.20;;;;;;;;;;5018117;28;20429;-79
2023/12/12 09:23:03;;;;;;;19.27;5.70;;;;;;;;;;5020545;28;20782;-79
2023/12/12 09:25:29;;;;;;;11.97;5.30;;;;;;;;;;5019647;28;20480;-82
2023/12/12 09:27:55;;;;;;;22.83;6.70;;;;;;;;;;5018038;28;20445;-81
2023/12/12 09:30:21;;;;;;;8.13;4.10;;;;;;;;;;5017903;28;20461;-80
2023/12/12 09:32:48;;;;;;;9.50;4.73;;;;;;;;;;5026904;28;20414;-80
2023/12/12 09:35:14;;;;;;;14.00;5.03;;;;;;;;;;5026280;28;20965;-80
2023/12/12 09:37:40;;;;;;;9.43;4.40;;;;;;;;;;5005269;28;20473;-76
2023/12/12 09:40:06;;;;;;;9.47;4.77;;;;;;;;;;5024570;28;20414;-82
2023/12/12 09:42:34;;;;;;;7.13;4.87;;;;;;;;;;5018682;28;20994;-81
2023/12/12 09:45:00;;;;;;;9.77;5.53;;;;;;;;;;5011389;28;20438;-79
2023/12/12 09:47:30;;;;;;;10.87;5.60;;;;;;;;;;5011948;28;20472;-79
2023/12/12 09:49:58;;;;;;;13.73;6.63;;;;;;;;;;5018364;28;20454;-76
2023/12/12 09:52:25;;;;;;;16.00;5.97;;;;;;;;;;5018630;28;20429;-80
2023/12/12 09:54:52;;;;;;;13.87;6.30;;;;;;;;;;5015206;28;20422;-78
2023/12/12 09:57:19;;;;;;;18.47;7.13;;;;;;;;;;5017216;28;20413;-78
2023/12/12 09:59:45;;;;;;;19.43;7.43;;;;;;;;;;5017888;28;20480;-79
2023/12/12 10:02:14;;;;;;;21.47;7.77;;;;;;;;;;5017422;28;20493;-80
2023/12/12 10:04:41;;;;;;;17.20;7.90;;;;;;;;;;5015677;28;20422;-80
2023/12/12 10:07:08;;;;;;;22.00;8.20;;;;;;;;;;5018175;28;20468;-81
2023/12/12 10:09:34;;;;;;;25.23;8.63;;;;;;;;;;5017576;28;20461;-80
2023/12/12 10:12:00;;;;;;;24.60;8.40;;;;;;;;;;5001708;28;20992;-80
2023/12/12 10:14:55;;;;;;;12.83;7.63;;;;;;;;;;4989210;28;20757;-80
2023/12/12 10:17:24;;;;;;;16.30;6.90;;;;;;;;;;4981006;28;20442;-74
2023/12/12 10:20:00;;;;;;;12.07;6.00;;;;;;;;;;5012596;28;20543;-75
2023/12/12 10:22:30;;;;;;;14.07;6.90;;;;;;;;;;5012972;28;20441;-78
2023/12/12 10:25:09;;;;;;;13.40;6.70;;;;;;;;;;5013522;28;20540;-77
2023/12/12 10:27:36;;;;;;;14.33;7.07;;;;;;;;;;5012726;28;20925;-76
2023/12/12 10:30:03;;;;;;;13.80;6.50;;;;;;;;;;5011822;28;20560;-74
2023/12/12 10:32:30;;;;;;;14.17;6.80;;;;;;;;;;5012813;28;20508;-76
2023/12/12 10:34:56;;;;;;;16.77;5.80;;;;;;;;;;5015942;28;20416;-80
2023/12/12 10:37:22;;;;;;;20.67;7.00;;;;;;;;;;5016311;28;20433;-79
2023/12/12 10:39:49;;;;;;;10.57;5.80;;;;;;;;;;4998215;28;20525;-80
2023/12/12 10:42:15;;;;;;;9.67;5.60;;;;;;;;;;4998315;28;20442;-80
2023/12/12 10:44:45;;;;;;;12.30;6.13;;;;;;;;;;4998712;28;20458;-80
2023/12/12 10:47:14;;;;;;;7.63;4.60;;;;;;;;;;5016428;28;20410;-80
2023/12/12 10:49:43;;;;;;;7.87;4.90;;;;;;;;;;4998784;28;20486;-80
2023/12/12 10:52:10;;;;;;;10.73;5.70;;;;;;;;;;5017254;28;20440;-80
2023/12/12 10:54:37;;;;;;;8.57;5.00;;;;;;;;;;4999299;28;20783;-80
2023/12/12 10:57:04;;;;;;;8.80;4.90;;;;;;;;;;4998728;28;20410;-80
2023/12/12 10:59:31;;;;;;;15.20;5.67;;;;;;;;;;5016224;28;20441;-80
2023/12/12 11:01:57;;;;;;;11.57;5.83;;;;;;;;;;5009880;28;20480;-80
2023/12/12 11:04:26;;;;;;;8.57;5.83;;;;;;;;;;5032448;28;20402;-80
2023/12/12 11:06:52;;;;;;;15.87;5.93;;;;;;;;;;5010149;28;20438;-80
2023/12/12 11:09:21;;;;;;;8.70;4.70;;;;;;;;;;5005852;28;20823;-80
2023/12/12 11:11:48;;;;;;;9.90;4.43;;;;;;;;;;5000042;28;20438;-81
2023/12/12 11:14:15;;;;;;;7.50;4.03;;;;;;;;;;5001603;28;20414;-80
2023/12/12 11:16:43;;;;;;;11.50;3.27;;;;;;;;;;5024498;28;20410;-80
2023/12/12 11:19:16;;;;;;;6.67;4.23;;;;;;;;;;5010983;28;20423;-80
2023/12/12 11:21:42;;;;;;;9.00;3.90;;;;;;;;;;5030144;28;20454;-80
2023/12/12 11:24:08;;;;;;;10.50;4.30;;;;;;;;;;5028616;28;21003;-79
2023/12/12 11:26:35;;;;;;;6.80;3.30;;;;;;;;;;5004734;28;20488;-79
2023/12/12 11:29:01;;;;;;;8.50;4.43;;;;;;;;;;5001813;28;20458;-78
2023/12/12 11:31:28;;;;;;;5.47;3.23;;;;;;;;;;5019832;28;20497;-79
2023/12/12 11:34:20;;;;;;;7.60;3.70;;;;;;;;;;5009220;28;20445;-79
2023/12/12 11:36:54;;;;;;;9.00;3.90;;;;;;;;;;4999125;28;20421;-79
2023/12/12 11:39:49;;;;;;;6.60;3.77;;;;;;;;;;5017423;28;20564;-78
2023/12/12 11:42:20;;;;;;;7.23;3.00;;;;;;;;;;5018735;28;20499;-81
2023/12/12 11:44:49;;;;;;;4.60;2.70;;;;;;;;;;5018481;28;20545;-80
2023/12/12 11:47:15;;;;;;;2.60;2.43;;;;;;;;;;5000459;28;20561;-81
2023/12/12 11:49:43;;;;;;;5.90;2.27;;;;;;;;;;5019139;28;20460;-81
2023/12/12 11:52:11;;;;;;;2.90;2.30;;;;;;;;;;5015409;28;20442;-79
2023/12/12 11:54:40;;;;;;;5.30;2.37;;;;;;;;;;5028577;28;20406;-81
2023/12/12 11:57:06;;;;;;;9.20;2.50;;;;;;;;;;5018267;28;20425;-81
2023/12/12 11:59:33;;;;;;;3.83;2.50;;;;;;;;;;5018696;28;20410;-81
2023/12/12 12:02:00;;;;;;;2.90;2.10;;;;;;;;;;5007867;28;20495;-79
2023/12/12 12:04:26;;;;;;;4.90;3.30;;;;;;;;;;5005164;28;20432;-80
2023/12/12 12:06:53;;;;;;;8.30;3.67;;;;;;;;;;5009909;28;20429;-81
2023/12/12 12:09:19;;;;;;;9.90;2.73;;;;;;;;;;5017237;28;20952;-79
2023/12/12 12:11:49;;;;;;;7.03;2.03;;;;;;;;;;4998441;28;20592;-79
2023/12/12 12:14:20;;;;;;;3.30;2.10;;;;;;;;;;4996869;28;20936;-78
2023/12/12 12:16:47;;;;;;;7.20;3.53;;;;;;;;;;4995720;28;20759;-78
2023/12/12 12:19:32;;;;;;;3.50;2.43;;;;;;;;;;4994500;28;20422;-78
2023/12/12 12:22:02;;;;;;;5.57;2.77;;;;;;;;;;5011840;28;20501;-78
2023/12/12 12:24:29;;;;;;;3.60;2.00;;;;;;;;;;5012232;28;20425;-77
2023/12/12 12:26:55;;;;;;;4.90;2.63;;;;;;;;;;5012084;28;20924;-78
2023/12/12 12:29:21;;;;;;;4.13;2.60;;;;;;;;;;5014445;28;20458;-78
2023/12/12 12:31:47;;;;;;;5.83;2.50;;;;;;;;;;5015482;28;20430;-79
2023/12/12 12:34:19;;;;;;;8.10;3.10;;;;;;;;;;5011989;28;20418;-78
2023/12/12 12:36:46;;;;;;;13.10;3.50;;;;;;;;;;5012300;28;20416;-79
2023/12/12 12:39:13;;;;;;;4.77;2.40;;;;;;;;;;5011907;28;20735;-79
2023/12/12 12:41:39;;;;;;;4.93;3.13;;;;;;;;;;5011870;28;20433;-79
2023/12/12 12:44:05;;;;;;;5.43;2.90;;;;;;;;;;5010799;28;20454;-78
2023/12/12 12:46:31;;;;;;;8.73;2.80;;;;;;;;;;5012480;28;20543;-78
2023/12/12 12:48:57;;;;;;;6.87;3.20;;;;;;;;;;5010694;28;20462;-78
2023/12/12 12:51:24;;;;;;;4.30;3.13;;;;;;;;;;5011834;28;20853;-78
2023/12/12 12:53:50;;;;;;;5.60;3.17;;;;;;;;;;5015452;28;20406;-78
2023/12/12 12:56:17;;;;;;;6.00;3.30;;;;;;;;;;5014309;28;20410;-78
2023/12/12 12:58:43;;;;;;;5.87;2.77;;;;;;;;;;5015554;28;20414;-78
2023/12/12 13:01:09;;;;;;;6.97;3.07;;;;;;;;;;5014933;28;20454;-79
2023/12/12 13:03:35;;;;;;;10.00;3.93;;;;;;;;;;5018207;28;20406;-77
2023/12/12 13:06:01;;;;;;;9.93;3.40;;;;;;;;;;5017258;28;20793;-78
2023/12/12 13:08:27;;;;;;;7.83;3.67;;;;;;;;;;5016823;28;20830;-78
2023/12/12 13:10:53;;;;;;;9.33;4.17;;;;;;;;;;5034130;28;20516;-78
2023/12/12 13:13:19;;;;;;;10.27;4.40;;;;;;;;;;5040029;28;20429;-77
2023/12/12 13:15:45;;;;;;;6.57;5.00;;;;;;;;;;5039088;28;20438;-77
2023/12/12 13:18:11;;;;;;;6.97;3.87;;;;;;;;;;5034649;28;20406;-77
2023/12/12 13:20:37;;;;;;;7.63;2.90;;;;;;;;;;5036470;28;20434;-76
2023/12/12 13:23:03;;;;;;;6.07;3.07;;;;;;;;;;5039264;28;20430;-76
2023/12/12 13:25:29;;;;;;;3.63;2.17;;;;;;;;;;5025384;28;20748;-78
2023/12/12 13:27:55;;;;;;;5.13;2.80;;;;;;;;;;5016487;28;20418;-76
2023/12/12 13:30:21;;;;;;;6.10;2.07;;;;;;;;;;5014355;28;20461;-75
2023/12/12 13:32:47;;;;;;;2.90;2.00;;;;;;;;;;4995502;28;20434;-74
2023/12/12 13:35:15;;;;;;;2.27;2.10;;;;;;;;;;4995320;28;20773;-73
2023/12/12 13:37:43;;;;;;;3.67;2.07;;;;;;;;;;4977878;28;20415;-73
2023/12/12 13:40:09;;;;;;;3.13;1.60;;;;;;;;;;4994964;28;20411;-74
2023/12/12 13:42:38;;;;;;;5.90;2.83;;;;;;;;;;4995136;28;20407;-74
2023/12/12 13:45:05;;;;;;;9.50;4.60;;;;;;;;;;4995206;28;20411;-74
2023/12/12 13:47:31;;;;;;;4.27;2.80;;;;;;;;;;4994670;28;20422;-73
2023/12/12 13:49:57;;;;;;;7.60;2.80;;;;;;;;;;4976995;28;20466;-76
2023/12/12 13:52:23;;;;;;;4.53;2.60;;;;;;;;;;4994926;28;20965;-75
2023/12/12 13:54:49;;;;;;;6.70;2.63;;;;;;;;;;4995820;28;20422;-77
2023/12/12 13:57:15;;;;;;;5.90;3.13;;;;;;;;;;5006939;28;20492;-77
2023/12/12 13:59:41;;;;;;;4.00;2.60;;;;;;;;;;4997217;28;20446;-77
2023/12/12 14:02:07;;;;;;;5.67;3.40;;;;;;;;;;4995295;28;20482;-75
2023/12/12 14:04:33;;;;;;;6.10;3.77;;;;;;;;;;4996355;28;20426;-73
2023/12/12 14:07:00;;;;;;;4.53;3.20;;;;;;;;;;4994284;28;20761;-75
2023/12/12 14:09:27;;;;;;;4.60;3.23;;;;;;;;;;4993379;28;20462;-73
2023/12/12 14:11:53;;;;;;;5.40;3.60;;;;;;;;;;4994075;28;20435;-74
2023/12/12 14:14:20;;;;;;;7.83;3.00;;;;;;;;;;4994219;28;20423;-75
2023/12/12 14:16:45;;;;;;;3.43;2.20;;;;;;;;;;4993829;28;20465;-75
2023/12/12 14:19:11;;;;;;;4.03;2.80;;;;;;;;;;4993981;28;20818;-75
2023/12/12 14:21:38;;;;;;;8.53;4.20;;;;;;;;;;4994224;28;20469;-75
2023/12/12 14:24:04;;;;;;;6.33;3.50;;;;;;;;;;4994571;28;20411;-77
2023/12/12 14:26:30;;;;;;;5.77;2.70;;;;;;;;;;4995083;28;20418;-78
2023/12/12 14:28:56;;;;;;;5.20;3.13;;;;;;;;;;4995851;28;20461;-78
2023/12/12 14:31:22;;;;;;;3.93;3.03;;;;;;;;;;4998234;28;20426;-78
2023/12/12 14:33:48;;;;;;;4.63;3.17;;;;;;;;;;4988787;28;20429;-77
2023/12/12 14:36:14;;;;;;;5.23;3.10;;;;;;;;;;4981984;28;20841;-77
2023/12/12 14:38:43;;;;;;;4.67;3.13;;;;;;;;;;4977187;28;20597;-75
2023/12/12 14:41:09;;;;;;;5.70;3.00;;;;;;;;;;4980372;28;20473;-75
2023/12/12 14:43:35;;;;;;;9.13;4.47;;;;;;;;;;4996385;28;20414;-77
2023/12/12 14:46:01;;;;;;;11.53;5.07;;;;;;;;;;4976197;28;20418;-77
2023/12/12 14:48:32;;;;;;;6.47;4.00;;;;;;;;;;4994325;28;20415;-75
2023/12/12 14:51:00;;;;;;;16.40;5.43;;;;;;;;;;4998869;28;20449;-75
2023/12/12 14:53:26;;;;;;;11.30;4.60;;;;;;;;;;5013181;28;20414;-75
2023/12/12 14:55:53;;;;;;;10.73;4.53;;;;;;;;;;5012238;28;20474;-71
2023/12/12 14:58:19;;;;;;;7.97;4.30;;;;;;;;;;5012866;28;20759;-72
2023/12/12 15:00:46;;;;;;;8.67;5.00;;;;;;;;;;5012238;28;20449;-73
2023/12/12 15:03:12;;;;;;;8.10;4.80;;;;;;;;;;5012520;28;20429;-72
2023/12/12 15:05:38;;;;;;;10.70;5.90;;;;;;;;;;5012597;28;20430;-72
2023/12/12 15:08:04;;;;;;;13.80;5.00;;;;;;;;;;4998057;28;20425;-72
2023/12/12 15:10:30;;;;;;;7.67;4.40;;;;;;;;;;5033921;28;20492;-74
2023/12/12 15:12:56;;;;;;;10.63;5.10;;;;;;;;;;5019116;28;20410;-74
2023/12/12 15:15:22;;;;;;;6.00;3.83;;;;;;;;;;5012982;28;20414;-77
2023/12/12 15:17:48;;;;;;;5.60;3.60;;;;;;;;;;5014445;28;20402;-76
2023/12/12 15:20:15;;;;;;;6.23;4.20;;;;;;;;;;5013854;28;20509;-77
2023/12/12 15:22:41;;;;;;;7.43;4.17;;;;;;;;;;5016780;28;20421;-77
2023/12/12 15:25:09;;;;;;;7.70;4.53;;;;;;;;;;5014101;28;20504;-76
2023/12/12 15:27:35;;;;;;;7.93;5.20;;;;;;;;;;5014206;28;20423;-76
2023/12/12 15:30:01;;;;;;;12.13;5.60;;;;;;;;;;5013337;28;20476;-77
2023/12/12 15:32:27;;;;;;;8.03;5.20;;;;;;;;;;4998125;28;21007;-77
2023/12/12 15:34:55;;;;;;;10.23;5.27;;;;;;;;;;4996862;28;20418;-77
2023/12/12 15:37:21;;;;;;;13.20;5.10;;;;;;;;;;5014488;28;20406;-76
2023/12/12 15:39:47;;;;;;;6.83;4.53;;;;;;;;;;5013428;28;20440;-76
2023/12/12 15:42:15;;;;;;;7.80;4.77;;;;;;;;;;5012204;28;20434;-76
2023/12/12 15:44:41;;;;;;;5.67;4.00;;;;;;;;;;5012616;28;20430;-76
2023/12/12 15:47:06;;;;;;;8.00;5.00;;;;;;;;;;5011938;28;20972;-76
2023/12/12 15:49:32;;;;;;;10.53;4.60;;;;;;;;;;5012267;28;20476;-76
2023/12/12 15:51:58;;;;;;;6.23;4.07;;;;;;;;;;5015060;28;20509;-77
2023/12/12 15:54:24;;;;;;;10.20;5.20;;;;;;;;;;5018967;28;20406;-77
2023/12/12 15:56:51;;;;;;;10.40;5.07;;;;;;;;;;5020758;28;20398;-78
2023/12/12 15:59:17;;;;;;;8.27;4.70;;;;;;;;;;5004315;28;20468;-77
2023/12/12 16:01:43;;;;;;;7.73;5.27;;;;;;;;;;4999043;28;20469;-76
2023/12/12 16:04:09;;;;;;;10.30;5.50;;;;;;;;;;5012290;28;20861;-76
2023/12/12 16:06:35;;;;;;;10.87;5.10;;;;;;;;;;5012261;28;20477;-76
2023/12/12 16:09:01;;;;;;;13.63;6.20;;;;;;;;;;5012715;28;21035;-76
2023/12/12 16:11:27;;;;;;;14.20;4.63;;;;;;;;;;5011921;28;20450;-77
2023/12/12 16:13:53;;;;;;;9.53;5.27;;;;;;;;;;5016260;28;20410;-75
2023/12/12 16:16:19;;;;;;;7.80;4.90;;;;;;;;;;5014053;28;20422;-76
2023/12/12 16:18:45;;;;;;;7.80;4.30;;;;;;;;;;5019262;28;20420;-78
2023/12/12 16:21:12;;;;;;;6.63;4.53;;;;;;;;;;5001868;28;20441;-77
2023/12/12 16:23:38;;;;;;;5.57;4.60;;;;;;;;;;5003850;28;20426;-78
2023/12/12 16:26:04;;;;;;;8.77;4.40;;;;;;;;;;5022393;28;20420;-79
2023/12/12 16:28:30;;;;;;;9.40;5.03;;;;;;;;;;5020066;28;20460;-78
2023/12/12 16:30:56;;;;;;;9.83;5.63;;;;;;;;;;5018789;28;20536;-78
2023/12/12 16:33:22;;;;;;;8.87;5.70;;;;;;;;;;5001559;28;20858;-78
2023/12/12 16:35:49;;;;;;;9.70;4.67;;;;;;;;;;5023009;28;20429;-78
2023/12/12 16:38:18;;;;;;;10.37;5.40;;;;;;;;;;5010876;28;20887;-78
2023/12/12 16:40:46;;;;;;;7.17;4.13;;;;;;;;;;5015016;28;20445;-78
2023/12/12 16:43:12;;;;;;;8.07;5.00;;;;;;;;;;5011771;28;20422;-78
2023/12/12 16:45:38;;;;;;;7.23;5.33;;;;;;;;;;5021155;28;20426;-78
2023/12/12 16:48:04;;;;;;;8.97;5.60;;;;;;;;;;5003374;28;20428;-79
2023/12/12 16:50:31;;;;;;;7.43;5.13;;;;;;;;;;5002016;28;20500;-77
2023/12/12 16:52:57;;;;;;;10.03;5.80;;;;;;;;;;4999853;28;20449;-77
2023/12/12 16:55:23;;;;;;;11.13;6.17;;;;;;;;;;5015970;28;20472;-77
2023/12/12 16:57:50;;;;;;;10.53;6.93;;;;;;;;;;5001806;28;20775;-77
2023/12/12 17:00:16;;;;;;;11.20;6.40;;;;;;;;;;5020537;28;20898;-76
2023/12/12 17:02:42;;;;;;;11.47;6.90;;;;;;;;;;5015319;28;20560;-72
2023/12/12 17:05:11;;;;;;;10.70;5.93;;;;;;;;;;5018649;28;20425;-75
2023/12/12 17:07:38;;;;;;;17.43;7.20;;;;;;;;;;5028012;28;20429;-78
2023/12/12 17:10:06;;;;;;;10.13;6.60;;;;;;;;;;5012535;28;20493;-77
2023/12/12 17:12:33;;;;;;;10.43;6.50;;;;;;;;;;5016369;28;20451;-76
2023/12/12 17:14:59;;;;;;;11.10;7.33;;;;;;;;;;5019094;28;20424;-79
2023/12/12 17:17:25;;;;;;;12.13;6.23;;;;;;;;;;5003984;28;20437;-78
2023/12/12 17:19:55;;;;;;;17.90;7.97;;;;;;;;;;4998772;28;20438;-78
2023/12/12 17:22:21;;;;;;;17.73;7.23;;;;;;;;;;5025384;28;20528;-78
2023/12/12 17:24:47;;;;;;;14.07;7.33;;;;;;;;;;5022072;28;20441;-78
2023/12/12 17:27:13;;;;;;;16.03;7.80;;;;;;;;;;5001313;28;20429;-77
2023/12/12 17:29:39;;;;;;;9.50;6.53;;;;;;;;;;5004927;28;20462;-77
2023/12/12 17:32:10;;;;;;;11.23;7.20;;;;;;;;;;5007209;28;20449;-79
2023/12/12 17:34:37;;;;;;;11.60;7.73;;;;;;;;;;5021449;28;20486;-77
2023/12/12 17:37:03;;;;;;;13.60;8.33;;;;;;;;;;5004056;28;20434;-77
2023/12/12 17:39:29;;;;;;;15.37;10.03;;;;;;;;;;5013283;28;20438;-78
2023/12/12 17:41:55;;;;;;;11.43;7.33;;;;;;;;;;5020226;28;20453;-78
2023/12/12 17:44:22;;;;;;;13.77;7.90;;;;;;;;;;5018376;28;20414;-77
2023/12/12 17:46:48;;;;;;;12.43;7.33;;;;;;;;;;5016637;28;20406;-76
2023/12/12 17:49:14;;;;;;;9.03;6.40;;;;;;;;;;5037615;28;20449;-77
2023/12/12 17:51:40;;;;;;;13.50;7.17;;;;;;;;;;5031149;28;20509;-77
2023/12/12 17:54:06;;;;;;;13.33;8.50;;;;;;;;;;5021373;28;20460;-77
2023/12/12 17:56:32;;;;;;;13.63;8.10;;;;;;;;;;5004798;28;20485;-78
2023/12/12 17:58:58;;;;;;;16.87;8.57;;;;;;;;;;5026878;28;20513;-76
2023/12/12 18:01:23;;;;;;;18.10;10.63;;;;;;;;;;5025689;28;20521;-77
2023/12/12 18:03:49;;;;;;;16.13;9.70;;;;;;;;;;5017364;28;20425;-76
2023/12/12 18:06:16;;;;;;;18.27;10.10;;;;;;;;;;5016516;28;20874;-76
2023/12/12 18:08:42;;;;;;;21.20;10.67;;;;;;;;;;5016923;28;20685;-77
2023/12/12 18:11:08;;;;;;;18.13;9.90;;;;;;;;;;5021291;28;20469;-76
2023/12/12 18:13:38;;;;;;;14.40;8.57;;;;;;;;;;5037885;23;20888;-78
2023/12/12 18:16:04;;;;;;;18.83;9.30;;;;;;;;;;4993599;28;20407;-77
2023/12/12 18:18:30;;;;;;;20.50;12.30;;;;;;;;;;4967359;28;20422;-78
2023/12/12 18:20:56;;;;;;;21.40;10.77;;;;;;;;;;4967620;28;20427;-77
2023/12/12 18:23:22;;;;;;;21.10;9.37;;;;;;;;;;4966541;28;20439;-77
2023/12/12 18:25:48;;;;;;;17.50;9.37;;;;;;;;;;4965890;28;20619;-77
2023/12/12 18:28:14;;;;;;;13.10;8.07;;;;;;;;;;4968854;28;20518;-77
2023/12/12 18:30:46;;;;;;;20.67;8.10;;;;;;;;;;4990383;28;20483;-78
2023/12/12 18:33:13;;;;;;;16.30;9.43;;;;;;;;;;4995279;28;20439;-77
2023/12/12 18:35:39;;;;;;;13.83;8.23;;;;;;;;;;4980309;28;20925;-77
2023/12/12 18:38:05;;;;;;;21.30;9.03;;;;;;;;;;4966156;28;20562;-74
2023/12/12 18:40:31;;;;;;;12.70;8.70;;;;;;;;;;4985336;28;20538;-73
2023/12/12 18:42:57;;;;;;;11.30;7.20;;;;;;;;;;4993107;28;20810;-73
2023/12/12 18:45:23;;;;;;;16.13;7.30;;;;;;;;;;4979644;28;20424;-75
2023/12/12 18:47:53;;;;;;;10.33;6.90;;;;;;;;;;4997136;28;20785;-77
2023/12/12 18:50:19;;;;;;;13.17;7.00;;;;;;;;;;4963984;28;20474;-76
2023/12/12 18:52:45;;;;;;;12.00;6.90;;;;;;;;;;4974541;28;20420;-75
2023/12/12 18:55:11;;;;;;;14.07;7.90;;;;;;;;;;4974523;28;20440;-74
2023/12/12 18:57:37;;;;;;;16.43;8.67;;;;;;;;;;4974680;28;20424;-74
2023/12/12 19:00:10;;;;;;;15.30;7.50;;;;;;;;;;4973801;28;20926;-75
2023/12/12 19:02:42;;;;;;;10.40;6.37;;;;;;;;;;4974333;28;20427;-75
2023/12/12 19:05:12;;;;;;;15.10;7.53;;;;;;;;;;4984803;28;20521;-75
2023/12/12 19:07:38;;;;;;;15.47;6.67;;;;;;;;;;4993378;28;20416;-76
2023/12/12 19:10:08;;;;;;;16.43;8.20;;;;;;;;;;4992900;28;20571;-76
2023/12/12 19:12:39;;;;;;;11.67;6.67;;;;;;;;;;4993737;28;20426;-75
2023/12/12 19:15:05;;;;;;;9.90;4.87;;;;;;;;;;4993493;28;20474;-76
2023/12/12 19:17:31;;;;;;;9.17;4.57;;;;;;;;;;4975875;28;20423;-75
2023/12/12 19:19:59;;;;;;;7.40;4.37;;;;;;;;;;4978300;28;20829;-76
2023/12/12 19:22:26;;;;;;;11.70;4.63;;;;;;;;;;4974516;28;20834;-76
2023/12/12 19:24:52;;;;;;;4.37;3.50;;;;;;;;;;4991927;28;20443;-78
2023/12/12 19:27:19;;;;;;;7.30;3.97;;;;;;;;;;4991225;28;20419;-76
2023/12/12 19:29:45;;;;;;;9.70;3.17;;;;;;;;;;5006972;28;20476;-76
2023/12/12 19:32:11;;;;;;;7.90;3.67;;;;;;;;;;5013355;28;20399;-75
2023/12/12 19:34:37;;;;;;;10.23;3.77;;;;;;;;;;5002670;28;20427;-76
2023/12/12 19:37:04;;;;;;;5.70;3.33;;;;;;;;;;4992833;28;20502;-76
2023/12/12 19:39:31;;;;;;;4.97;3.00;;;;;;;;;;4991846;28;20415;-76
2023/12/12 19:41:57;;;;;;;5.83;3.10;;;;;;;;;;4992123;28;20446;-76
2023/12/12 19:44:23;;;;;;;6.77;3.50;;;;;;;;;;4985067;28;20494;-75
2023/12/12 19:46:49;;;;;;;4.70;3.33;;;;;;;;;;4979729;28;20485;-76
2023/12/12 19:49:15;;;;;;;2.57;2.40;;;;;;;;;;4992303;28;20778;-75
2023/12/12 19:51:48;;;;;;;5.27;2.90;;;;;;;;;;4974404;28;20422;-74
2023/12/12 19:54:14;;;;;;;5.37;3.50;;;;;;;;;;4982282;28;20491;-76
2023/12/12 19:56:40;;;;;;;5.80;3.00;;;;;;;;;;4976121;28;20450;-75
2023/12/12 19:59:07;;;;;;;8.37;4.17;;;;;;;;;;4990836;28;20835;-76
2023/12/12 20:01:33;;;;;;;13.43;4.70;;;;;;;;;;4972761;28;20552;-74
2023/12/12 20:03:59;;;;;;;9.77;4.67;;;;;;;;;;4970960;28;20496;-74
2023/12/12 20:06:26;;;;;;;8.63;3.83;;;;;;;;;;4973339;28;20424;-75
2023/12/12 20:08:52;;;;;;;3.33;3.03;;;;;;;;;;4977660;28;20618;-74
2023/12/12 20:11:18;;;;;;;5.70;2.97;;;;;;;;;;5003305;28;20417;-75
2023/12/12 20:13:44;;;;;;;3.37;2.30;;;;;;;;;;5008834;28;20464;-74
2023/12/12 20:16:16;;;;;;;4.53;2.63;;;;;;;;;;4990116;28;20690;-75
2023/12/12 20:18:42;;;;;;;5.23;2.40;;;;;;;;;;4986729;28;20414;-76
2023/12/12 20:21:08;;;;;;;5.50;3.00;;;;;;;;;;4984348;28;20426;-75
2023/12/12 20:23:34;;;;;;;4.67;2.70;;;;;;;;;;4974929;28;20443;-76
2023/12/12 20:26:00;;;;;;;2.60;2.40;;;;;;;;;;4975027;28;20484;-75
2023/12/12 20:28:27;;;;;;;5.10;2.83;;;;;;;;;;4976772;28;20447;-76
2023/12/12 20:30:53;;;;;;;3.83;3.00;;;;;;;;;;4992406;28;20517;-74
2023/12/12 20:33:19;;;;;;;5.47;3.17;;;;;;;;;;4994502;28;20439;-74